Terminal Aerodrome Forecast
Issued by NWS

Home | Current Version | Previous Version | Text Only | Print | Product List | Glossary On
Versions: 1 2 3 4 5 6 7 8 9 10 11 12 13 14 15
000
FTUS45 KABQ 031100
TAFLVS
TAF
KLVS 031134Z 0312/0412 VRB05KT P6SM SCT120
     FM031500 23010KT P6SM BKN110
     FM032100 21014G22KT P6SM VCTS BKN090CB
     FM040100 19007KT P6SM BKN100
     FM040600 VRB05KT P6SM BKN140=

USA.gov is the U.S. government's official web portal to all federal, state and local government web resources and services.